Time;durP1;ratioP1;P1;durP2;ratioP2;P2;SDS_P1;SDS_P2;PMS_P1;PMS_P2;Temp;Humidity;BMP_temperature;BMP_pressure;BME280_temperature;BME280_humidity;BME280_pressure;Samples;Min_cycle;Max_cycle;Signal;HPM_P1;HPM_P2
2022/04/11 00:01:03;;;;;;;2.45;1.83;;;0.90;90.80;;;;;;5091677;28;20043;-67
2022/04/11 00:03:29;;;;;;;2.85;1.48;;;0.70;90.50;;;;;;5071850;28;20084;-67
2022/04/11 00:05:55;;;;;;;1.77;1.40;;;0.70;90.60;;;;;;5086295;28;20036;-67
2022/04/11 00:08:21;;;;;;;3.97;1.50;;;0.80;90.60;;;;;;5085530;28;20070;-67
2022/04/11 00:10:48;;;;;;;2.58;1.50;;;0.80;90.70;;;;;;5087177;28;20036;-67
2022/04/11 00:13:13;;;;;;;2.03;1.30;;;0.70;90.60;;;;;;5082061;28;20047;-67
2022/04/11 00:15:42;;;;;;;3.60;1.40;;;0.70;90.60;;;;;;5089020;28;20043;-67
2022/04/11 00:18:08;;;;;;;2.58;1.40;;;0.70;90.60;;;;;;5089191;28;21081;-67
2022/04/11 00:20:34;;;;;;;2.10;1.30;;;0.80;90.60;;;;;;5110924;28;20118;-67
2022/04/11 00:22:59;;;;;;;2.92;1.30;;;0.80;90.60;;;;;;5085663;28;20521;-67
2022/04/11 00:25:25;;;;;;;5.85;1.25;;;0.70;90.60;;;;;;5089557;28;20463;-67
2022/04/11 00:27:52;;;;;;;4.53;1.50;;;0.60;90.50;;;;;;5105868;28;20036;-67
2022/04/11 00:30:18;;;;;;;1.75;1.25;;;0.60;90.70;;;;;;5083490;28;20501;-67
2022/04/11 00:32:46;;;;;;;1.58;1.00;;;0.50;90.60;;;;;;5109671;28;20036;-67
2022/04/11 00:35:13;;;;;;;3.28;1.30;;;0.50;91.10;;;;;;5088018;28;20505;-67
2022/04/11 00:37:39;;;;;;;2.60;1.10;;;0.50;91.00;;;;;;5085570;28;20043;-67
2022/04/11 00:40:09;;;;;;;3.95;1.30;;;0.50;91.30;;;;;;5081906;28;20062;-67
2022/04/11 00:42:34;;;;;;;1.83;1.00;;;0.50;91.00;;;;;;5089842;28;20086;-67
2022/04/11 00:45:01;;;;;;;3.08;1.40;;;0.60;91.10;;;;;;5088250;28;20093;-67
2022/04/11 00:47:27;;;;;;;2.03;1.23;;;0.50;91.10;;;;;;5089025;28;20031;-67
2022/04/11 00:49:57;;;;;;;3.22;1.40;;;0.50;90.90;;;;;;5089955;28;20046;-67
2022/04/11 00:52:23;;;;;;;5.15;1.30;;;0.40;90.90;;;;;;5089997;28;20051;-67
2022/04/11 00:54:49;;;;;;;4.00;1.50;;;0.40;91.40;;;;;;5064748;28;20028;-67
2022/04/11 00:57:15;;;;;;;2.92;1.35;;;0.40;91.60;;;;;;5085574;28;20088;-68
2022/04/11 00:59:44;;;;;;;2.47;1.23;;;0.40;92.20;;;;;;5091195;28;20103;-67
2022/04/11 01:02:09;;;;;;;2.70;1.58;;;0.40;91.90;;;;;;5088034;28;20089;-67
2022/04/11 01:04:35;;;;;;;2.85;1.50;;;0.40;91.60;;;;;;5087376;28;20378;-67
2022/04/11 01:07:00;;;;;;;3.85;1.70;;;0.40;91.50;;;;;;5072963;28;20051;-68
2022/04/11 01:09:27;;;;;;;3.80;1.20;;;0.30;91.50;;;;;;5082021;28;20833;-67
2022/04/11 01:11:53;;;;;;;2.03;1.15;;;0.30;91.80;;;;;;5080355;28;20088;-67
2022/04/11 01:14:19;;;;;;;2.55;1.70;;;0.20;91.50;;;;;;5106500;28;20039;-67
2022/04/11 01:16:49;;;;;;;5.10;1.50;;;0.20;91.50;;;;;;5089133;28;20054;-67
2022/04/11 01:19:16;;;;;;;3.45;1.35;;;0.30;91.70;;;;;;5069608;28;20131;-67
2022/04/11 01:21:45;;;;;;;2.60;1.60;;;0.40;91.90;;;;;;5087230;28;20301;-67
2022/04/11 01:24:11;;;;;;;1.47;1.30;;;0.40;91.90;;;;;;5086601;28;20316;-67
2022/04/11 01:26:37;;;;;;;2.20;1.40;;;0.40;91.90;;;;;;5107516;28;20285;-67
2022/04/11 01:29:04;;;;;;;3.33;1.50;;;0.30;91.60;;;;;;5085167;28;20047;-67
2022/04/11 01:31:30;;;;;;;1.85;1.30;;;0.30;91.50;;;;;;5110467;28;20089;-67
2022/04/11 01:33:56;;;;;;;3.65;1.27;;;0.20;91.50;;;;;;5087728;28;20126;-67
2022/04/11 01:36:22;;;;;;;4.32;1.17;;;0.20;91.50;;;;;;5062992;28;20140;-67
2022/04/11 01:38:48;;;;;;;4.80;1.45;;;0.10;91.40;;;;;;5088333;28;20232;-68
2022/04/11 01:41:13;;;;;;;3.85;1.60;;;0.10;91.50;;;;;;5086462;28;20031;-67
2022/04/11 01:43:39;;;;;;;3.47;1.33;;;0.00;91.50;;;;;;5087592;28;20491;-67
2022/04/11 01:46:04;;;;;;;3.00;1.48;;;0.00;91.60;;;;;;5067924;28;20051;-68
2022/04/11 01:48:30;;;;;;;3.10;1.80;;;0.00;91.80;;;;;;5105325;28;20486;-67
2022/04/11 01:50:55;;;;;;;3.40;1.67;;;0.00;91.80;;;;;;5072786;28;20036;-67
2022/04/11 01:53:21;;;;;;;2.80;1.60;;;0.00;92.30;;;;;;5084876;28;20077;-68
2022/04/11 01:55:47;;;;;;;1.88;1.38;;;-0.10;91.70;;;;;;5086618;28;20028;-67
2022/04/11 01:58:14;;;;;;;3.40;1.60;;;-0.10;91.90;;;;;;5106006;28;20110;-67
2022/04/11 02:00:40;;;;;;;2.53;1.60;;;-0.10;91.80;;;;;;5091684;28;20050;-67
2022/04/11 02:03:07;;;;;;;4.70;2.33;;;-0.10;91.80;;;;;;5070253;28;20036;-67
2022/04/11 02:05:33;;;;;;;4.38;1.75;;;-0.10;91.80;;;;;;5084929;28;20047;-67
2022/04/11 02:07:59;;;;;;;1.73;1.30;;;-0.10;91.90;;;;;;5085187;28;20051;-67
2022/04/11 02:10:25;;;;;;;3.35;1.50;;;-0.10;92.00;;;;;;5071316;28;20463;-67
2022/04/11 02:12:52;;;;;;;3.45;1.50;;;-0.10;91.90;;;;;;5084068;28;20533;-67
2022/04/11 02:15:18;;;;;;;5.80;1.50;;;-0.20;92.00;;;;;;5066845;28;20136;-67
2022/04/11 02:17:46;;;;;;;3.28;1.60;;;-0.20;91.90;;;;;;5084143;28;20036;-67
2022/04/11 02:20:12;;;;;;;3.65;1.60;;;-0.20;92.00;;;;;;5104142;28;20040;-67
2022/04/11 02:22:55;;;;;;;3.60;1.50;;;-0.20;92.00;;;;;;5088478;28;20035;-67
2022/04/11 02:25:22;;;;;;;2.78;1.60;;;-0.10;92.20;;;;;;5086497;28;20145;-67
2022/04/11 02:27:49;;;;;;;2.72;1.23;;;-0.20;92.10;;;;;;5087452;28;20047;-67
2022/04/11 02:30:16;;;;;;;3.75;1.73;;;-0.20;92.10;;;;;;5089514;28;20039;-67
2022/04/11 02:32:42;;;;;;;6.20;1.40;;;-0.20;92.10;;;;;;5109891;28;20152;-67
2022/04/11 02:35:08;;;;;;;2.85;1.60;;;-0.20;92.20;;;;;;5092472;28;20039;-67
2022/04/11 02:37:34;;;;;;;2.38;1.48;;;-0.20;92.20;;;;;;5085097;28;20036;-67
2022/04/11 02:40:01;;;;;;;2.45;1.58;;;-0.20;92.20;;;;;;5072104;28;20665;-67
2022/04/11 02:42:28;;;;;;;4.75;1.92;;;-0.20;92.30;;;;;;5088532;28;20116;-67
2022/04/11 02:44:54;;;;;;;3.65;1.80;;;-0.20;92.30;;;;;;5110256;28;20032;-67
2022/04/11 02:47:20;;;;;;;3.33;1.92;;;-0.20;92.30;;;;;;5087577;28;20490;-67
2022/04/11 02:49:46;;;;;;;2.60;1.52;;;-0.30;92.20;;;;;;5088111;28;20042;-67
2022/04/11 02:52:12;;;;;;;3.42;1.67;;;-0.30;92.20;;;;;;5095505;28;20040;-67
2022/04/11 02:54:39;;;;;;;3.22;1.63;;;-0.30;92.30;;;;;;5083947;28;20036;-67
2022/04/11 02:57:05;;;;;;;3.92;1.70;;;-0.30;92.30;;;;;;5109050;28;20039;-67
2022/04/11 02:59:32;;;;;;;3.40;1.60;;;-0.40;92.30;;;;;;5093036;28;20027;-67
2022/04/11 03:01:58;;;;;;;2.35;1.60;;;-0.40;92.30;;;;;;5095056;28;20043;-67
2022/04/11 03:04:23;;;;;;;3.85;1.77;;;-0.40;92.30;;;;;;5091171;28;20028;-67
2022/04/11 03:06:49;;;;;;;3.03;1.85;;;-0.50;92.40;;;;;;5076940;28;20075;-67
2022/04/11 03:09:14;;;;;;;5.18;1.50;;;-0.50;92.40;;;;;;5090926;28;20035;-67
2022/04/11 03:11:40;;;;;;;2.22;1.60;;;-0.50;92.50;;;;;;5090229;28;20044;-67
2022/04/11 03:14:06;;;;;;;2.10;1.50;;;-0.50;92.60;;;;;;5073537;28;20035;-67
2022/04/11 03:16:31;;;;;;;2.58;1.52;;;-0.50;92.50;;;;;;5087130;28;20090;-67
2022/04/11 03:18:57;;;;;;;5.15;1.92;;;-0.60;92.80;;;;;;5089826;28;20094;-67
2022/04/11 03:21:23;;;;;;;4.80;2.28;;;-0.60;92.60;;;;;;5089516;28;20435;-67
2022/04/11 03:23:48;;;;;;;3.28;1.75;;;-0.60;92.60;;;;;;5067834;28;20125;-67
2022/04/11 03:26:14;;;;;;;3.17;1.75;;;-0.60;92.60;;;;;;5091823;28;20106;-67
2022/04/11 03:28:40;;;;;;;4.25;1.75;;;-0.60;92.70;;;;;;5090262;28;20112;-67
2022/04/11 03:31:05;;;;;;;2.63;1.80;;;-0.60;93.00;;;;;;5090192;28;20040;-68
2022/04/11 03:33:31;;;;;;;4.75;2.08;;;-0.60;93.00;;;;;;5086675;28;20028;-67
2022/04/11 03:35:56;;;;;;;2.50;1.73;;;-0.50;93.60;;;;;;5090950;28;20116;-67
2022/04/11 03:38:22;;;;;;;3.35;1.90;;;-0.50;93.30;;;;;;5090744;28;20189;-67
2022/04/11 03:40:47;;;;;;;3.35;2.00;;;-0.50;94.00;;;;;;5091259;28;20036;-67
2022/04/11 03:43:13;;;;;;;4.55;1.75;;;-0.40;93.80;;;;;;5072298;28;20040;-67
2022/04/11 03:45:38;;;;;;;3.58;1.95;;;-0.40;93.80;;;;;;5111639;28;20031;-67
2022/04/11 03:48:04;;;;;;;4.85;2.25;;;-0.30;93.80;;;;;;5109956;28;20039;-67
2022/04/11 03:50:30;;;;;;;2.40;1.83;;;-0.30;93.50;;;;;;5087805;28;20047;-67
2022/04/11 03:52:55;;;;;;;2.80;1.90;;;-0.30;93.80;;;;;;5073099;28;20039;-67
2022/04/11 03:55:21;;;;;;;4.10;1.77;;;-0.20;93.70;;;;;;5089010;28;20116;-67
2022/04/11 03:57:46;;;;;;;4.00;1.95;;;-0.10;93.70;;;;;;5089447;28;20164;-67
2022/04/11 04:00:13;;;;;;;3.92;2.15;;;0.00;93.70;;;;;;5092241;28;20050;-67
2022/04/11 04:02:39;;;;;;;2.40;1.52;;;0.10;93.80;;;;;;5084456;28;20036;-67
2022/04/11 04:05:05;;;;;;;4.45;2.08;;;0.10;93.60;;;;;;5085030;28;20058;-71
2022/04/11 04:07:30;;;;;;;2.78;1.70;;;0.20;93.70;;;;;;5104571;28;20171;-68
2022/04/11 04:09:56;;;;;;;4.82;2.10;;;0.30;93.80;;;;;;5106091;28;20040;-67
2022/04/11 04:12:22;;;;;;;7.13;2.03;;;0.30;93.70;;;;;;5086452;28;20157;-68
2022/04/11 04:14:48;;;;;;;2.35;1.90;;;0.30;93.50;;;;;;5106045;28;20474;-67
2022/04/11 04:17:14;;;;;;;3.00;1.73;;;0.40;93.50;;;;;;5091304;28;22413;-67
2022/04/11 04:19:40;;;;;;;4.78;2.00;;;0.40;93.50;;;;;;5089139;28;20463;-68
2022/04/11 04:22:07;;;;;;;4.63;2.20;;;0.40;93.90;;;;;;5087790;28;20067;-67
2022/04/11 04:24:34;;;;;;;3.10;2.03;;;0.40;94.30;;;;;;5084748;28;20088;-67
2022/04/11 04:27:01;;;;;;;5.75;2.38;;;0.40;93.80;;;;;;5091556;28;20119;-67
2022/04/11 04:29:27;;;;;;;2.97;1.95;;;0.40;93.60;;;;;;5090576;28;20036;-67
2022/04/11 04:31:53;;;;;;;5.57;2.08;;;0.40;93.80;;;;;;5090110;28;20115;-68
2022/04/11 04:34:20;;;;;;;3.33;1.98;;;0.50;93.60;;;;;;5090805;28;20505;-68
2022/04/11 04:36:46;;;;;;;4.28;1.77;;;0.40;93.60;;;;;;5103018;28;20038;-68
2022/04/11 04:39:12;;;;;;;3.40;1.73;;;0.50;93.70;;;;;;5078186;28;20409;-68
2022/04/11 04:41:37;;;;;;;7.03;2.05;;;0.50;93.70;;;;;;5077356;28;20170;-68
2022/04/11 04:44:05;;;;;;;4.68;2.08;;;0.50;93.80;;;;;;5078537;28;20032;-68
2022/04/11 04:46:32;;;;;;;2.88;2.28;;;0.60;93.80;;;;;;5078119;28;22456;-68
2022/04/11 04:48:57;;;;;;;4.43;1.88;;;0.60;93.70;;;;;;5100277;28;20043;-68
2022/04/11 04:51:23;;;;;;;4.07;2.22;;;0.60;93.80;;;;;;5077845;28;20112;-68
2022/04/11 04:53:49;;;;;;;3.78;2.28;;;0.70;93.70;;;;;;5075064;28;21033;-68
2022/04/11 04:56:14;;;;;;;4.82;2.13;;;0.70;93.80;;;;;;5077881;28;20180;-68
2022/04/11 04:58:40;;;;;;;4.53;2.80;;;0.80;93.70;;;;;;5078746;28;20100;-68
2022/04/11 05:01:05;;;;;;;7.60;2.15;;;0.80;93.70;;;;;;5076423;28;20043;-68
2022/04/11 05:03:31;;;;;;;4.53;2.40;;;0.80;93.70;;;;;;5077492;28;20756;-67
2022/04/11 05:05:56;;;;;;;4.90;2.08;;;0.90;93.80;;;;;;5077972;28;20045;-68
2022/04/11 05:08:22;;;;;;;4.93;3.00;;;0.90;93.70;;;;;;5073022;28;20094;-68
2022/04/11 05:10:47;;;;;;;4.68;2.45;;;1.00;93.80;;;;;;5064324;28;20074;-68
2022/04/11 05:13:13;;;;;;;4.60;2.63;;;1.00;93.80;;;;;;5087925;28;20447;-68
2022/04/11 05:15:42;;;;;;;4.68;2.47;;;1.10;93.70;;;;;;5089910;28;20032;-68
2022/04/11 05:18:08;;;;;;;3.78;2.53;;;1.10;93.80;;;;;;5088368;28;20043;-68
2022/04/11 05:20:34;;;;;;;5.18;2.47;;;1.10;93.80;;;;;;5085847;28;20047;-68
2022/04/11 05:23:00;;;;;;;5.13;2.55;;;1.10;93.90;;;;;;5088257;28;20145;-68
2022/04/11 05:25:25;;;;;;;4.25;2.60;;;1.20;93.80;;;;;;5102101;28;20057;-68
2022/04/11 05:27:52;;;;;;;6.78;2.70;;;1.20;93.70;;;;;;5104118;28;20031;-68
2022/04/11 05:30:18;;;;;;;4.93;2.67;;;1.20;93.70;;;;;;5089930;28;20052;-68
2022/04/11 05:32:43;;;;;;;7.03;3.03;;;1.20;93.70;;;;;;5090049;28;20027;-68
2022/04/11 05:35:10;;;;;;;5.63;2.60;;;1.30;93.80;;;;;;5087971;28;20084;-68
2022/04/11 05:37:36;;;;;;;5.80;2.90;;;1.30;94.30;;;;;;5104446;28;20455;-68
2022/04/11 05:40:03;;;;;;;7.10;2.90;;;1.30;94.00;;;;;;5100253;28;20035;-68
2022/04/11 05:42:29;;;;;;;7.28;3.47;;;1.40;93.90;;;;;;5106156;28;20035;-68
2022/04/11 05:44:54;;;;;;;3.95;2.88;;;1.40;93.90;;;;;;5085078;28;20032;-68
2022/04/11 05:47:20;;;;;;;5.13;3.53;;;1.40;93.80;;;;;;5078682;28;20395;-68
2022/04/11 05:49:45;;;;;;;3.88;2.90;;;1.50;93.90;;;;;;5089966;28;20416;-68
2022/04/11 05:52:15;;;;;;;6.20;3.25;;;1.50;93.80;;;;;;5086742;28;20033;-68
2022/04/11 05:54:40;;;;;;;9.25;3.83;;;1.60;93.90;;;;;;5085071;28;20032;-68
2022/04/11 05:57:06;;;;;;;6.68;3.90;;;1.60;93.80;;;;;;5104491;28;20188;-68
2022/04/11 05:59:31;;;;;;;7.68;3.45;;;1.60;93.80;;;;;;5085801;28;20036;-68
2022/04/11 06:01:57;;;;;;;5.63;3.47;;;1.70;93.70;;;;;;5085760;28;22457;-68
2022/04/11 06:04:23;;;;;;;6.40;4.15;;;1.70;93.70;;;;;;5084026;28;20050;-68
2022/04/11 06:06:48;;;;;;;6.22;4.30;;;1.80;93.60;;;;;;5102162;28;20100;-68
2022/04/11 06:09:14;;;;;;;6.78;4.10;;;1.90;93.60;;;;;;5073470;28;20051;-68
2022/04/11 06:11:40;;;;;;;5.88;3.80;;;2.00;93.50;;;;;;5081981;28;20043;-68
2022/04/11 06:14:05;;;;;;;5.28;3.70;;;2.00;93.50;;;;;;5099803;28;20035;-68
2022/04/11 06:16:31;;;;;;;4.82;3.80;;;2.10;93.40;;;;;;5069677;28;20478;-68
2022/04/11 06:18:57;;;;;;;5.60;3.90;;;2.20;93.30;;;;;;5068262;28;20043;-68
2022/04/11 06:21:23;;;;;;;9.40;4.38;;;2.30;93.30;;;;;;5089613;28;20114;-68
2022/04/11 06:23:49;;;;;;;12.25;4.60;;;2.40;93.20;;;;;;5089030;28;20032;-68
2022/04/11 06:26:15;;;;;;;9.13;4.10;;;2.50;93.00;;;;;;5090974;28;20092;-68
2022/04/11 06:28:41;;;;;;;10.13;4.30;;;2.60;92.80;;;;;;5088847;28;20044;-68
2022/04/11 06:31:09;;;;;;;7.53;3.83;;;2.70;92.90;;;;;;5091092;28;20035;-68
2022/04/11 06:33:36;;;;;;;7.00;3.80;;;2.70;93.00;;;;;;5091464;28;20050;-68
2022/04/11 06:36:02;;;;;;;5.95;3.92;;;2.80;92.70;;;;;;5082032;28;20109;-68
2022/04/11 06:38:28;;;;;;;6.32;3.63;;;2.80;92.70;;;;;;5109047;28;20029;-68
2022/04/11 06:40:55;;;;;;;6.50;3.80;;;2.90;92.60;;;;;;5090383;28;20778;-68
2022/04/11 06:43:20;;;;;;;6.50;4.30;;;2.90;92.40;;;;;;5090808;28;20097;-68
2022/04/11 06:45:46;;;;;;;7.57;4.10;;;3.00;92.80;;;;;;5092357;28;20073;-68
2022/04/11 06:48:11;;;;;;;7.70;4.18;;;3.00;92.60;;;;;;5091191;28;20065;-68
2022/04/11 06:50:37;;;;;;;9.68;4.35;;;3.00;92.50;;;;;;5090854;28;20040;-68
2022/04/11 06:53:03;;;;;;;8.35;3.97;;;3.10;92.50;;;;;;5089704;28;20039;-68
2022/04/11 06:55:28;;;;;;;6.43;4.03;;;3.20;92.60;;;;;;5089676;28;20051;-68
2022/04/11 06:57:54;;;;;;;7.70;4.32;;;3.20;92.60;;;;;;5089860;28;20036;-68
2022/04/11 07:00:19;;;;;;;7.80;4.80;;;3.30;92.70;;;;;;5091962;28;20055;-68
2022/04/11 07:02:45;;;;;;;7.03;4.63;;;3.30;92.70;;;;;;5090662;28;20129;-69
2022/04/11 07:05:10;;;;;;;10.30;5.07;;;3.40;92.60;;;;;;5090181;28;20027;-68
2022/04/11 07:07:39;;;;;;;9.32;5.10;;;3.50;92.30;;;;;;5087978;28;20116;-68
2022/04/11 07:10:05;;;;;;;8.38;5.38;;;3.60;92.30;;;;;;5089432;28;20075;-68
2022/04/11 07:12:31;;;;;;;8.32;4.97;;;3.70;92.20;;;;;;5073336;28;20075;-68
2022/04/11 07:15:01;;;;;;;8.00;5.03;;;3.80;91.90;;;;;;5091964;28;20068;-68
2022/04/11 07:17:28;;;;;;;8.73;4.78;;;3.90;91.80;;;;;;5091684;28;20035;-68
2022/04/11 07:19:54;;;;;;;10.70;5.13;;;4.10;91.80;;;;;;5093701;28;20122;-69
2022/04/11 07:22:21;;;;;;;8.95;5.80;;;4.20;91.50;;;;;;5080527;28;20130;-68
2022/04/11 07:24:47;;;;;;;6.45;5.03;;;4.20;90.80;;;;;;5093380;28;20096;-68
2022/04/11 07:27:12;;;;;;;7.25;5.43;;;4.30;90.60;;;;;;5093844;28;20043;-68
2022/04/11 07:29:38;;;;;;;7.78;5.32;;;4.40;90.30;;;;;;5078044;28;20042;-68
2022/04/11 07:32:04;;;;;;;9.35;5.30;;;4.50;90.10;;;;;;5112709;28;20042;-68
2022/04/11 07:34:30;;;;;;;8.75;5.10;;;4.60;89.70;;;;;;5094889;28;20039;-68
2022/04/11 07:36:55;;;;;;;10.75;5.65;;;4.70;90.00;;;;;;5092556;28;20509;-68
2022/04/11 07:39:23;;;;;;;11.32;5.90;;;4.90;89.20;;;;;;5086855;28;20118;-68
2022/04/11 07:41:49;;;;;;;9.82;5.47;;;5.00;88.70;;;;;;5073913;28;20118;-72
2022/04/11 07:44:15;;;;;;;8.93;5.38;;;5.10;87.70;;;;;;5092948;28;20036;-68
2022/04/11 07:46:41;;;;;;;10.68;5.00;;;5.30;87.20;;;;;;5094962;28;20039;-68
2022/04/11 07:49:06;;;;;;;6.82;4.88;;;5.40;86.00;;;;;;5094770;28;20092;-67
2022/04/11 07:51:32;;;;;;;8.90;5.43;;;5.50;86.70;;;;;;5094221;28;20092;-68
2022/04/11 07:53:57;;;;;;;9.48;5.40;;;5.70;86.80;;;;;;5092805;28;20382;-69
2022/04/11 07:56:23;;;;;;;9.57;5.43;;;5.90;86.60;;;;;;5090634;28;20046;-68
2022/04/11 07:58:49;;;;;;;9.75;5.40;;;6.00;86.00;;;;;;5090506;28;20032;-68
2022/04/11 08:01:16;;;;;;;6.63;5.20;;;6.20;85.90;;;;;;5080571;28;20031;-68
2022/04/11 08:03:44;;;;;;;11.40;5.53;;;6.30;85.70;;;;;;5112399;28;20050;-68
2022/04/11 08:06:09;;;;;;;11.38;6.15;;;6.50;85.80;;;;;;5093567;28;20047;-68
2022/04/11 08:08:35;;;;;;;7.63;5.07;;;6.70;85.10;;;;;;5091998;28;20067;-68
2022/04/11 08:11:01;;;;;;;9.65;5.20;;;6.90;84.60;;;;;;5093289;28;20475;-69
2022/04/11 08:13:26;;;;;;;7.15;5.82;;;7.00;84.20;;;;;;5093699;28;20044;-69
2022/04/11 08:15:52;;;;;;;10.70;5.63;;;7.20;83.90;;;;;;5093312;28;20095;-69
2022/04/11 08:18:18;;;;;;;12.77;6.13;;;7.30;83.50;;;;;;5083612;28;20028;-68
2022/04/11 08:20:43;;;;;;;8.75;5.70;;;7.30;83.30;;;;;;5066633;28;20027;-68
2022/04/11 08:23:09;;;;;;;6.95;5.40;;;7.40;83.30;;;;;;5084373;28;20056;-69
2022/04/11 08:25:34;;;;;;;7.35;5.25;;;7.60;82.90;;;;;;5092576;28;20094;-68
2022/04/11 08:28:00;;;;;;;9.00;5.93;;;7.60;82.30;;;;;;5090625;28;20039;-69
2022/04/11 08:30:26;;;;;;;12.80;6.65;;;7.80;81.60;;;;;;5073379;28;20459;-70
2022/04/11 08:32:52;;;;;;;9.02;5.72;;;7.90;81.20;;;;;;5083203;28;20039;-68
2022/04/11 08:35:20;;;;;;;13.02;5.80;;;8.20;81.10;;;;;;5093904;28;20070;-68
2022/04/11 08:37:46;;;;;;;10.38;5.63;;;8.30;80.50;;;;;;5085660;28;20114;-68
2022/04/11 08:40:13;;;;;;;10.32;5.78;;;8.60;80.10;;;;;;5091640;28;20784;-69
2022/04/11 08:42:41;;;;;;;9.00;4.93;;;8.80;78.60;;;;;;5093243;28;20460;-68
2022/04/11 08:45:07;;;;;;;9.10;4.63;;;9.40;77.00;;;;;;5094062;28;20400;-69
2022/04/11 08:47:34;;;;;;;7.50;5.18;;;9.90;74.70;;;;;;5076748;28;20071;-69
2022/04/11 08:50:00;;;;;;;8.48;4.60;;;10.70;73.40;;;;;;5093725;28;20035;-69
2022/04/11 08:52:26;;;;;;;13.57;5.88;;;11.50;71.00;;;;;;5088827;28;20043;-69
2022/04/11 08:54:52;;;;;;;7.22;4.88;;;11.90;69.40;;;;;;5064852;28;20527;-70
2022/04/11 08:57:18;;;;;;;8.45;4.88;;;12.00;68.70;;;;;;5087853;28;20040;-70
2022/04/11 08:59:43;;;;;;;9.40;4.85;;;12.10;66.90;;;;;;5088674;28;20039;-69
2022/04/11 09:02:09;;;;;;;6.57;4.90;;;12.00;67.90;;;;;;5091744;28;20122;-71
2022/04/11 09:04:56;;;;;;;7.07;4.30;;;12.60;66.70;;;;;;5090039;28;20094;-70
2022/04/11 09:07:22;;;;;;;7.55;3.95;;;13.20;62.10;;;;;;5089230;28;20062;-70
2022/04/11 09:09:48;;;;;;;8.43;4.75;;;13.50;66.10;;;;;;5088206;28;20081;-70
2022/04/11 09:12:19;;;;;;;8.98;4.47;;;13.30;64.30;;;;;;5074199;28;20410;-69
2022/04/11 09:14:55;;;;;;;8.57;4.10;;;13.20;64.40;;;;;;5086185;28;20043;-68
2022/04/11 09:17:24;;;;;;;5.63;4.25;;;13.80;58.30;;;;;;5081948;28;20200;-67
2022/04/11 09:20:10;;;;;;;5.88;4.07;;;14.30;60.30;;;;;;5089598;28;20103;-69
2022/04/11 09:22:35;;;;;;;5.05;3.97;;;14.70;56.00;;;;;;5069151;28;20036;-68
2022/04/11 09:25:24;;;;;;;5.47;3.60;;;15.60;59.80;;;;;;5069453;28;20038;-68
2022/04/11 09:28:07;;;;;;;8.25;3.65;;;15.60;52.40;;;;;;5071300;28;20042;-69
2022/04/11 09:30:34;;;;;;;5.43;3.15;;;15.50;52.00;;;;;;5076242;28;20386;-71
2022/04/11 09:33:09;;;;;;;8.32;3.60;;;15.20;57.80;;;;;;5089915;28;20024;-70
2022/04/11 09:35:37;;;;;;;6.20;3.38;;;14.80;56.90;;;;;;5083020;28;20042;-69
2022/04/11 09:38:10;;;;;;;5.88;3.10;;;13.90;59.30;;;;;;5081053;28;20032;-69
2022/04/11 09:40:38;;;;;;;5.35;3.40;;;13.60;59.40;;;;;;5079222;28;20035;-68
2022/04/11 09:43:04;;;;;;;4.55;2.85;;;12.90;58.90;;;;;;5084645;28;20032;-71
2022/04/11 09:45:30;;;;;;;6.07;3.47;;;12.80;59.40;;;;;;5091167;28;20114;-71
2022/04/11 09:48:03;;;;;;;7.00;3.30;;;12.50;59.50;;;;;;5075139;28;20397;-70
2022/04/11 09:50:31;;;;;;;5.05;3.22;;;12.40;57.70;;;;;;5063757;28;20036;-72
2022/04/11 09:53:07;;;;;;;6.82;2.58;;;12.30;59.10;;;;;;5088489;28;20036;-69
2022/04/11 09:55:34;;;;;;;4.65;2.75;;;12.10;57.00;;;;;;5091436;28;20039;-70
2022/04/11 09:58:05;;;;;;;5.35;3.13;;;12.00;57.70;;;;;;5087064;28;20502;-70
2022/04/11 10:00:36;;;;;;;5.85;3.17;;;12.10;58.80;;;;;;5108967;28;20114;-70
2022/04/11 10:03:03;;;;;;;5.28;2.75;;;12.30;58.80;;;;;;5062369;28;20028;-70
2022/04/11 10:05:29;;;;;;;4.97;2.63;;;12.30;58.60;;;;;;5087658;28;20043;-71
2022/04/11 10:07:55;;;;;;;6.20;2.30;;;12.50;56.00;;;;;;5080916;28;20059;-70
2022/04/11 10:10:22;;;;;;;6.50;3.10;;;12.60;56.40;;;;;;5063304;28;20824;-70
2022/04/11 10:12:48;;;;;;;6.88;2.50;;;12.80;54.70;;;;;;5070459;28;20043;-69
2022/04/11 10:15:15;;;;;;;4.32;2.38;;;13.10;55.20;;;;;;5091835;28;20070;-71
2022/04/11 10:17:41;;;;;;;4.80;2.53;;;13.60;53.70;;;;;;5086794;28;20042;-70
2022/04/11 10:20:07;;;;;;;5.95;2.30;;;14.40;51.90;;;;;;5068491;28;20031;-69
2022/04/11 10:22:45;;;;;;;6.93;2.20;;;15.20;50.50;;;;;;5085450;28;20150;-71
2022/04/11 10:25:15;;;;;;;4.15;2.38;;;16.30;47.20;;;;;;5082791;28;20364;-71
2022/04/11 10:27:41;;;;;;;4.30;2.30;;;16.90;43.50;;;;;;5068969;28;20027;-70
2022/04/11 10:30:27;;;;;;;5.18;2.22;;;17.60;44.80;;;;;;5082753;28;20524;-69
2022/04/11 10:32:54;;;;;;;3.25;2.40;;;17.60;41.20;;;;;;5078194;28;20050;-71
2022/04/11 10:35:39;;;;;;;6.13;2.70;;;17.10;45.10;;;;;;5083381;28;20043;-72
2022/04/11 10:38:06;;;;;;;5.70;2.38;;;16.50;43.80;;;;;;5062656;28;20158;-71
2022/04/11 10:40:32;;;;;;;5.97;2.67;;;15.70;46.00;;;;;;5086425;28;20036;-71
2022/04/11 10:43:00;;;;;;;5.18;2.42;;;15.20;47.50;;;;;;5087902;28;20439;-70
2022/04/11 10:45:31;;;;;;;5.53;3.05;;;14.70;47.80;;;;;;5090765;28;20072;-70
2022/04/11 10:47:56;;;;;;;5.55;2.67;;;14.30;48.00;;;;;;5091755;28;20040;-71
2022/04/11 10:50:32;;;;;;;4.05;2.20;;;14.00;49.50;;;;;;5088058;28;20047;-72
2022/04/11 10:53:17;;;;;;;2.97;2.22;;;13.70;49.20;;;;;;5105348;28;20054;-77
2022/04/11 10:55:54;;;;;;;4.57;2.42;;;13.60;48.10;;;;;;5072725;28;20114;-71
2022/04/11 10:58:40;;;;;;;3.15;2.40;;;13.20;46.30;;;;;;5082045;28;20167;-71
2022/04/11 11:01:05;;;;;;;5.35;2.40;;;13.10;49.10;;;;;;5061556;28;20434;-71
2022/04/11 11:03:31;;;;;;;4.20;2.30;;;13.20;50.60;;;;;;5094291;28;20036;-71
2022/04/11 11:06:18;;;;;;;5.53;2.55;;;13.20;50.70;;;;;;5093133;28;20040;-70
2022/04/11 11:08:44;;;;;;;6.18;2.80;;;13.40;49.10;;;;;;5072379;28;20090;-71
2022/04/11 11:11:21;;;;;;;5.38;2.30;;;13.40;48.60;;;;;;5078493;28;20047;-69
2022/04/11 11:13:46;;;;;;;5.47;2.55;;;13.10;45.00;;;;;;5088437;28;20039;-70
2022/04/11 11:16:12;;;;;;;5.15;2.30;;;13.00;47.40;;;;;;5093610;28;20048;-68
2022/04/11 11:18:52;;;;;;;4.32;2.45;;;13.10;47.70;;;;;;5084656;28;20046;-69
2022/04/11 11:21:19;;;;;;;;;;;13.00;46.30;;;;;;5093046;28;20097;-70
2022/04/11 11:26:52;;;;;;;7.63;2.80;;;13.00;46.60;;;;;;5087163;28;20071;-69
2022/04/11 11:29:32;;;;;;;4.03;2.17;;;13.00;44.70;;;;;;5070201;28;20058;-71
2022/04/11 11:32:03;;;;;;;4.53;2.50;;;13.10;45.50;;;;;;5077155;28;20072;-70
2022/04/11 11:34:36;;;;;;;4.95;2.70;;;13.10;44.60;;;;;;5089452;28;20073;-71
2022/04/11 11:37:04;;;;;;;9.77;3.08;;;13.00;46.40;;;;;;5091365;28;20032;-69
2022/04/11 11:39:33;;;;;;;7.10;3.72;;;13.10;47.40;;;;;;5073498;28;20027;-70
2022/04/11 11:42:04;;;;;;;6.18;3.97;;;13.10;45.80;;;;;;5072456;28;20084;-72
2022/04/11 11:44:32;;;;;;;6.70;3.95;;;13.20;45.00;;;;;;5101552;28;20036;-70
2022/04/11 11:46:58;;;;;;;6.60;3.72;;;13.20;45.60;;;;;;5075188;28;20088;-71
2022/04/11 11:49:36;;;;;;;6.93;3.42;;;13.10;45.00;;;;;;5091399;28;20046;-72
2022/04/11 11:52:02;;;;;;;9.45;3.55;;;13.20;45.30;;;;;;5086981;28;20054;-72
2022/04/11 11:54:39;;;;;;;6.22;3.90;;;13.20;46.20;;;;;;5081667;28;20039;-72
2022/04/11 11:57:19;;;;;;;5.10;3.47;;;13.20;45.00;;;;;;5081072;28;20048;-71
2022/04/11 12:00:02;;;;;;;5.88;3.88;;;13.10;43.90;;;;;;5073322;28;20097;-71
2022/04/11 12:05:32;;;;;;;9.10;4.15;;;13.10;46.10;;;;;;5089489;28;20108;-73
2022/04/11 12:08:13;;;;;;;7.07;4.90;;;13.30;44.10;;;;;;5086738;28;20348;-74
2022/04/11 12:10:43;;;;;;;8.25;5.03;;;13.40;44.50;;;;;;5089849;28;20478;-72
2022/04/11 12:13:09;;;;;;;9.63;4.47;;;13.60;45.70;;;;;;5091712;28;20574;-72
2022/04/11 12:15:36;;;;;;;6.85;4.53;;;13.70;45.80;;;;;;5071203;28;20047;-72
2022/04/11 12:18:04;;;;;;;9.13;4.70;;;13.80;44.70;;;;;;5070101;28;20564;-72
2022/04/11 12:20:31;;;;;;;8.02;4.60;;;13.80;43.80;;;;;;5068677;28;20039;-72
2022/04/11 12:23:05;;;;;;;6.97;4.60;;;14.00;44.60;;;;;;5068030;28;20047;-73
2022/04/11 12:25:54;;;;;;;7.97;4.38;;;13.60;43.10;;;;;;5088490;28;20035;-73
2022/04/11 12:28:23;;;;;;;6.57;4.20;;;13.80;42.90;;;;;;5066911;28;20058;-71
2022/04/11 12:31:07;;;;;;;6.82;4.70;;;14.10;43.80;;;;;;5067292;28;20061;-74
2022/04/11 12:33:35;;;;;;;7.43;4.30;;;14.10;42.90;;;;;;5085919;28;20105;-72
2022/04/11 12:36:16;;;;;;;10.07;4.68;;;14.00;43.60;;;;;;5073695;28;20046;-70
2022/04/11 12:38:48;;;;;;;8.50;4.13;;;14.40;43.10;;;;;;5089861;28;20031;-71
2022/04/11 12:41:36;;;;;;;7.22;4.18;;;14.30;44.10;;;;;;5078095;28;20044;-71
2022/04/11 12:44:11;;;;;;;8.85;4.18;;;14.70;41.30;;;;;;5068620;28;20058;-72
2022/04/11 12:46:41;;;;;;;7.22;4.65;;;14.80;42.10;;;;;;5093297;28;20062;-74
2022/04/11 12:49:09;;;;;;;6.65;4.68;;;15.40;41.10;;;;;;5092112;28;20039;-74
2022/04/11 12:51:35;;;;;;;9.05;4.70;;;16.00;40.40;;;;;;5089137;28;20044;-74
2022/04/11 12:54:08;;;;;;;7.13;4.90;;;16.40;40.10;;;;;;5090962;28;20503;-72
2022/04/11 12:56:46;;;;;;;7.07;4.78;;;17.20;39.80;;;;;;5074691;28;20519;-70
2022/04/11 12:59:29;;;;;;;6.60;4.72;;;18.70;38.40;;;;;;5072909;28;20040;-72
2022/04/11 13:02:15;;;;;;;7.53;4.07;;;20.40;34.50;;;;;;5078523;28;20090;-70